Time;durP1;ratioP1;P1;durP2;ratioP2;P2;SDS_P1;SDS_P2;PMS_P1;PMS_P2;Temp;Humidity;BMP_temperature;BMP_pressure;BME280_temperature;BME280_humidity;BME280_pressure;Samples;Min_cycle;Max_cycle;Signal;HPM_P1;HPM_P2
2021/08/01 00:01:35;;;;;;;6.90;5.07;;;14.90;99.90;;;;;;5055132;28;20029;-86
2021/08/01 00:04:09;;;;;;;6.70;5.40;;;14.90;99.90;;;;;;5071800;28;20128;-86
2021/08/01 00:06:39;;;;;;;6.72;5.28;;;14.90;99.90;;;;;;5056434;28;20025;-86
2021/08/01 00:09:06;;;;;;;7.25;5.10;;;14.80;99.90;;;;;;5054873;28;20037;-86
2021/08/01 00:11:34;;;;;;;6.47;5.78;;;14.80;99.90;;;;;;5054870;28;20028;-86
2021/08/01 00:14:00;;;;;;;9.10;6.13;;;14.70;99.90;;;;;;5056156;28;20178;-87
2021/08/01 00:16:29;;;;;;;7.03;5.75;;;14.70;99.90;;;;;;5054483;28;20037;-87
2021/08/01 00:19:03;;;;;;;6.72;5.60;;;14.70;99.90;;;;;;5054356;28;20040;-86
2021/08/01 00:21:31;;;;;;;6.68;5.90;;;14.70;99.90;;;;;;5054420;28;20405;-87
2021/08/01 00:24:09;;;;;;;7.50;5.82;;;14.70;99.90;;;;;;5054398;28;20068;-86
2021/08/01 00:26:41;;;;;;;6.80;5.70;;;14.60;99.90;;;;;;5055380;28;20057;-86
2021/08/01 00:29:10;;;;;;;7.38;5.85;;;14.60;99.90;;;;;;5055507;28;20457;-85
2021/08/01 00:31:38;;;;;;;6.97;5.82;;;14.60;99.90;;;;;;5037782;28;20037;-86
2021/08/01 00:34:07;;;;;;;7.57;5.85;;;14.50;99.90;;;;;;5037130;28;20033;-85
2021/08/01 00:36:48;;;;;;;8.38;6.28;;;14.60;99.90;;;;;;5044067;28;20052;-86
2021/08/01 00:39:14;;;;;;;8.88;5.95;;;14.60;99.90;;;;;;5051036;28;20124;-86
2021/08/01 00:41:40;;;;;;;7.20;5.88;;;14.50;99.90;;;;;;5054098;28;20116;-86
2021/08/01 00:44:26;;;;;;;7.63;6.00;;;14.50;99.90;;;;;;5037694;28;20044;-87
2021/08/01 00:46:52;;;;;;;7.10;5.97;;;14.50;99.90;;;;;;5036891;28;20033;-85
2021/08/01 00:49:26;;;;;;;8.82;6.10;;;14.50;99.90;;;;;;5054036;28;20123;-86
2021/08/01 00:52:11;;;;;;;7.18;5.85;;;14.50;99.90;;;;;;5054042;28;20111;-87
2021/08/01 00:54:45;;;;;;;6.97;5.68;;;14.40;99.90;;;;;;5037426;28;20041;-86
2021/08/01 00:57:25;;;;;;;6.70;5.57;;;14.40;99.90;;;;;;5053520;28;20116;-85
2021/08/01 00:59:51;;;;;;;7.43;5.88;;;14.40;99.90;;;;;;5036770;28;20123;-85
2021/08/01 01:02:22;;;;;;;8.80;6.82;;;14.40;99.90;;;;;;5037174;28;20436;-85
2021/08/01 01:04:58;;;;;;;9.65;6.53;;;14.40;99.90;;;;;;5055175;28;20045;-86
2021/08/01 01:07:45;;;;;;;6.85;6.15;;;14.40;99.90;;;;;;5036966;28;20072;-86
2021/08/01 01:10:34;;;;;;;7.93;5.85;;;14.40;99.90;;;;;;5053760;28;20124;-85
2021/08/01 01:13:13;;;;;;;7.93;5.95;;;14.40;99.90;;;;;;5037376;28;20048;-87
2021/08/01 01:15:52;;;;;;;7.45;5.93;;;14.40;99.90;;;;;;5037233;28;20025;-85
2021/08/01 01:18:28;;;;;;;7.65;5.90;;;14.40;99.90;;;;;;5054518;28;20037;-86
2021/08/01 01:21:28;;;;;;;7.38;5.97;;;14.40;99.90;;;;;;5054635;28;20108;-85
2021/08/01 01:24:07;;;;;;;7.00;5.82;;;14.40;99.90;;;;;;5053337;28;20448;-84
2021/08/01 01:27:09;;;;;;;8.55;6.32;;;14.40;99.90;;;;;;5050795;28;20080;-84
2021/08/01 01:29:49;;;;;;;8.35;7.10;;;14.40;99.90;;;;;;5052126;28;20037;-84
2021/08/01 01:32:38;;;;;;;8.38;7.03;;;14.40;99.90;;;;;;5035437;28;20037;-85
2021/08/01 01:35:14;;;;;;;7.93;6.40;;;14.40;99.90;;;;;;5035555;28;20130;-85
2021/08/01 01:37:47;;;;;;;9.02;6.90;;;14.40;99.90;;;;;;5049726;28;20082;-85
2021/08/01 01:40:22;;;;;;;7.85;6.70;;;14.40;99.90;;;;;;5034950;28;20369;-84
2021/08/01 01:42:55;;;;;;;8.23;6.40;;;14.40;99.90;;;;;;5040565;28;20038;-85
2021/08/01 01:45:25;;;;;;;;;;;14.40;99.90;;;;;;5049903;28;20037;-85
2021/08/01 01:47:51;;;;;;;6.28;4.95;;;14.40;99.90;;;;;;5039470;28;19974;-84
2021/08/01 01:50:21;;;;;;;7.97;5.65;;;14.40;99.90;;;;;;5044049;28;20029;-85
2021/08/01 01:52:58;;;;;;;7.05;5.90;;;14.40;99.90;;;;;;5047194;28;20044;-85
2021/08/01 01:55:35;;;;;;;6.88;5.95;;;14.40;99.90;;;;;;5034788;28;20488;-85
2021/08/01 01:58:02;;;;;;;7.18;5.93;;;14.30;99.90;;;;;;5052081;28;20373;-85
2021/08/01 02:00:30;;;;;;;7.93;6.38;;;14.20;99.90;;;;;;5052011;28;20029;-86
2021/08/01 02:03:02;;;;;;;7.28;6.57;;;14.30;99.90;;;;;;5035483;28;20041;-85
2021/08/01 02:05:42;;;;;;;7.28;6.03;;;14.20;99.90;;;;;;5051841;28;20036;-85
2021/08/01 02:08:11;;;;;;;6.78;5.40;;;14.20;99.90;;;;;;5035519;28;20086;-86
2021/08/01 02:11:10;;;;;;;8.65;6.10;;;14.20;99.90;;;;;;5035464;28;20030;-84
2021/08/01 02:14:05;;;;;;;8.70;6.22;;;14.10;99.90;;;;;;5034877;28;20036;-85
2021/08/01 02:16:39;;;;;;;7.25;5.80;;;14.10;99.90;;;;;;5045236;28;20496;-86
2021/08/01 02:19:12;;;;;;;9.73;6.15;;;14.00;99.90;;;;;;5035435;28;20112;-84
2021/08/01 02:21:43;;;;;;;8.25;6.45;;;14.10;99.90;;;;;;5036079;28;20075;-85
2021/08/01 02:24:12;;;;;;;8.07;6.57;;;14.20;99.90;;;;;;5052469;28;20044;-85
2021/08/01 02:26:40;;;;;;;8.82;6.70;;;14.20;99.90;;;;;;5035567;28;20049;-84
2021/08/01 02:29:06;;;;;;;9.43;7.05;;;14.20;99.90;;;;;;5053489;28;20055;-85
2021/08/01 02:31:33;;;;;;;9.70;7.07;;;14.20;99.90;;;;;;5035658;28;20033;-85
2021/08/01 02:34:02;;;;;;;10.98;9.18;;;14.20;99.90;;;;;;5035847;28;20041;-84
2021/08/01 02:36:31;;;;;;;11.75;10.07;;;14.20;99.90;;;;;;5052444;28;20041;-85
2021/08/01 02:38:59;;;;;;;10.70;9.60;;;14.20;99.90;;;;;;5053499;28;20105;-84
2021/08/01 02:41:45;;;;;;;9.85;8.85;;;14.20;99.90;;;;;;5053768;28;20048;-84
2021/08/01 02:44:20;;;;;;;11.32;9.52;;;14.30;99.90;;;;;;5052307;28;20099;-85
2021/08/01 02:46:46;;;;;;;10.75;9.43;;;14.40;99.90;;;;;;5035815;28;20075;-84
2021/08/01 02:49:20;;;;;;;9.48;8.25;;;14.50;99.90;;;;;;5035557;28;20561;-85
2021/08/01 02:51:58;;;;;;;9.32;8.13;;;14.50;99.90;;;;;;5053577;28;20092;-84
2021/08/01 02:54:24;;;;;;;10.45;8.00;;;14.60;99.90;;;;;;5052363;28;20076;-85
2021/08/01 02:56:58;;;;;;;7.85;7.05;;;14.60;99.90;;;;;;5051814;28;20029;-85
2021/08/01 02:59:25;;;;;;;10.00;8.60;;;14.70;99.90;;;;;;5053431;28;20116;-86
2021/08/01 03:01:54;;;;;;;10.25;8.57;;;14.70;99.90;;;;;;5053072;28;20029;-86
2021/08/01 03:04:22;;;;;;;11.50;9.05;;;14.80;99.90;;;;;;5053511;28;20033;-85
2021/08/01 03:06:56;;;;;;;13.02;10.18;;;14.80;99.90;;;;;;5035597;28;20029;-85
2021/08/01 03:09:22;;;;;;;12.32;11.05;;;14.80;99.90;;;;;;5051939;28;20029;-85
2021/08/01 03:11:51;;;;;;;14.23;12.02;;;14.80;99.90;;;;;;5052966;28;20489;-85
2021/08/01 03:14:19;;;;;;;12.68;11.38;;;14.90;99.90;;;;;;5053268;28;20104;-85
2021/08/01 03:16:48;;;;;;;14.35;11.95;;;14.90;99.90;;;;;;5035372;28;20423;-85
2021/08/01 03:19:19;;;;;;;13.93;12.43;;;14.90;99.90;;;;;;5035745;28;20372;-85
2021/08/01 03:21:48;;;;;;;16.90;13.60;;;14.90;99.90;;;;;;5035014;28;20036;-85
2021/08/01 03:24:13;;;;;;;14.00;12.50;;;14.90;99.90;;;;;;5035323;28;20048;-85
2021/08/01 03:26:39;;;;;;;14.23;11.68;;;14.90;99.90;;;;;;5051394;28;20094;-85
2021/08/01 03:29:10;;;;;;;14.55;12.93;;;15.00;99.90;;;;;;5052087;28;20041;-86
2021/08/01 03:31:39;;;;;;;13.80;12.32;;;15.00;99.90;;;;;;5034824;28;20039;-85
2021/08/01 03:34:08;;;;;;;14.40;12.90;;;15.00;99.90;;;;;;5035474;28;20033;-86
2021/08/01 03:36:37;;;;;;;12.73;11.43;;;15.00;99.90;;;;;;5035180;28;20037;-85
2021/08/01 03:39:05;;;;;;;12.52;10.77;;;15.00;99.90;;;;;;5035119;28;20441;-85
2021/08/01 03:41:37;;;;;;;13.88;11.38;;;15.00;99.90;;;;;;5035168;28;20021;-85
2021/08/01 03:44:06;;;;;;;13.50;12.10;;;15.00;99.90;;;;;;5052920;28;20366;-85
2021/08/01 03:46:38;;;;;;;15.02;12.27;;;15.00;99.90;;;;;;5035068;28;20044;-85
2021/08/01 03:49:07;;;;;;;12.27;10.98;;;15.00;99.90;;;;;;5051753;28;20025;-85
2021/08/01 03:51:36;;;;;;;13.02;11.02;;;15.00;99.90;;;;;;5034847;28;20029;-85
2021/08/01 03:54:04;;;;;;;15.30;12.95;;;15.00;99.90;;;;;;5035159;28;20044;-86
2021/08/01 03:56:30;;;;;;;15.73;13.88;;;15.00;99.90;;;;;;5051628;28;20028;-86
2021/08/01 03:58:56;;;;;;;16.90;15.07;;;15.00;99.90;;;;;;5035116;28;20029;-86
2021/08/01 04:01:22;;;;;;;16.20;14.50;;;15.00;99.90;;;;;;5051606;28;20475;-86
2021/08/01 04:03:58;;;;;;;14.05;12.52;;;15.00;99.90;;;;;;5051614;28;20128;-85
2021/08/01 04:06:27;;;;;;;12.77;11.27;;;15.00;99.90;;;;;;5053002;28;20155;-86
2021/08/01 04:08:58;;;;;;;12.38;11.05;;;15.00;99.90;;;;;;5035834;28;20086;-85
2021/08/01 04:11:29;;;;;;;14.07;12.07;;;15.00;99.90;;;;;;5038336;28;20025;-85
2021/08/01 04:13:55;;;;;;;12.27;10.93;;;15.00;99.90;;;;;;5038391;28;20037;-85
2021/08/01 04:16:24;;;;;;;12.73;9.88;;;15.00;99.90;;;;;;5038305;28;20097;-85
2021/08/01 04:18:52;;;;;;;12.18;10.82;;;15.00;99.90;;;;;;5037558;28;20041;-86
2021/08/01 04:21:20;;;;;;;14.73;12.98;;;15.00;99.90;;;;;;5055833;28;20029;-85
2021/08/01 04:23:55;;;;;;;14.13;12.30;;;15.10;99.90;;;;;;5038300;28;20110;-85
2021/08/01 04:26:23;;;;;;;13.63;11.82;;;15.10;99.90;;;;;;5038206;28;20021;-85
2021/08/01 04:28:51;;;;;;;12.38;11.07;;;15.00;99.90;;;;;;5037893;28;20470;-85
2021/08/01 04:31:22;;;;;;;13.73;11.05;;;15.10;99.90;;;;;;5055549;28;20492;-86
2021/08/01 04:33:48;;;;;;;12.02;10.68;;;15.10;99.90;;;;;;5056292;28;20064;-86
2021/08/01 04:36:19;;;;;;;12.70;10.63;;;15.10;99.90;;;;;;5054708;28;20087;-85
2021/08/01 04:38:47;;;;;;;11.63;10.00;;;15.10;99.90;;;;;;5037708;28;20033;-84
2021/08/01 04:41:16;;;;;;;14.43;10.48;;;15.10;99.90;;;;;;5037968;28;20082;-85
2021/08/01 04:43:45;;;;;;;15.98;12.45;;;15.10;99.90;;;;;;5037606;28;20029;-85
2021/08/01 04:46:14;;;;;;;17.42;13.65;;;15.10;99.90;;;;;;5037758;28;20032;-85
2021/08/01 04:48:43;;;;;;;16.42;13.45;;;15.10;99.90;;;;;;5037833;28;20032;-85
2021/08/01 04:51:09;;;;;;;15.18;12.55;;;15.20;99.90;;;;;;5055355;28;20123;-85
2021/08/01 04:53:38;;;;;;;14.43;12.13;;;15.20;99.90;;;;;;5037728;28;20039;-85
2021/08/01 04:56:09;;;;;;;13.10;11.73;;;15.20;99.90;;;;;;5054149;28;20032;-85
2021/08/01 04:58:40;;;;;;;13.85;12.05;;;15.20;99.90;;;;;;5055172;28;20033;-86
2021/08/01 05:01:13;;;;;;;16.52;12.23;;;15.20;99.90;;;;;;5037594;28;20037;-86
2021/08/01 05:03:39;;;;;;;16.48;12.52;;;15.30;99.90;;;;;;5037177;28;20143;-86
2021/08/01 05:06:10;;;;;;;12.95;11.52;;;15.30;99.90;;;;;;5053954;28;20033;-85
2021/08/01 05:08:41;;;;;;;16.83;12.88;;;15.30;99.90;;;;;;5037025;28;20025;-85
2021/08/01 05:11:10;;;;;;;15.48;12.50;;;15.40;99.90;;;;;;5054179;28;20128;-85
2021/08/01 05:13:45;;;;;;;17.77;14.27;;;15.40;99.90;;;;;;5054851;28;20037;-85
2021/08/01 05:16:19;;;;;;;17.63;13.50;;;15.40;99.90;;;;;;5055493;28;20104;-85
2021/08/01 05:18:44;;;;;;;18.15;13.65;;;15.50;99.90;;;;;;5037089;28;20028;-85
2021/08/01 05:21:18;;;;;;;20.40;14.98;;;15.50;99.90;;;;;;5036706;28;20033;-87
2021/08/01 05:23:46;;;;;;;17.02;12.55;;;15.50;99.90;;;;;;5037074;28;20055;-85
2021/08/01 05:26:12;;;;;;;15.43;12.52;;;15.50;99.90;;;;;;5054831;28;20033;-86
2021/08/01 05:28:43;;;;;;;14.75;12.85;;;15.50;99.90;;;;;;5033343;28;20099;-85
2021/08/01 05:31:09;;;;;;;24.52;17.85;;;15.60;99.90;;;;;;5050328;28;20033;-85
2021/08/01 05:33:34;;;;;;;20.45;16.23;;;15.60;99.90;;;;;;5049740;28;20045;-85
2021/08/01 05:36:11;;;;;;;17.83;14.88;;;15.60;99.90;;;;;;5050283;28;20073;-85
2021/08/01 05:38:38;;;;;;;21.92;15.95;;;15.60;99.90;;;;;;5049162;28;20045;-84
2021/08/01 05:41:04;;;;;;;21.33;15.93;;;15.60;99.90;;;;;;5049843;28;20492;-85
2021/08/01 05:43:30;;;;;;;24.10;17.45;;;15.60;99.90;;;;;;5034311;28;20048;-84
2021/08/01 05:45:56;;;;;;;26.02;18.90;;;15.70;99.90;;;;;;5049873;28;20030;-85
2021/08/01 05:48:22;;;;;;;22.48;17.15;;;15.60;99.90;;;;;;5049805;28;20085;-85
2021/08/01 05:50:48;;;;;;;25.67;20.33;;;15.70;99.90;;;;;;5049891;28;20374;-85
2021/08/01 05:53:14;;;;;;;30.98;23.05;;;15.70;99.90;;;;;;5049862;28;20030;-85
2021/08/01 05:55:39;;;;;;;31.08;22.77;;;15.70;99.90;;;;;;5049814;28;20030;-86
2021/08/01 05:58:08;;;;;;;27.80;21.38;;;15.70;99.90;;;;;;5034379;28;20034;-86
2021/08/01 06:00:33;;;;;;;24.33;18.92;;;15.70;99.90;;;;;;5049311;28;20392;-85
2021/08/01 06:02:59;;;;;;;33.45;22.35;;;15.70;99.90;;;;;;5049878;28;20037;-85
2021/08/01 06:05:24;;;;;;;31.85;22.63;;;15.70;99.90;;;;;;5049731;28;20037;-85
2021/08/01 06:07:53;;;;;;;26.73;21.27;;;15.80;99.90;;;;;;5049431;28;20045;-85
2021/08/01 06:10:18;;;;;;;34.20;26.52;;;15.80;99.90;;;;;;5049256;28;20061;-85
2021/08/01 06:12:44;;;;;;;38.05;27.30;;;15.80;99.90;;;;;;5049498;28;20084;-85
2021/08/01 06:15:10;;;;;;;38.28;29.05;;;15.90;99.90;;;;;;5049399;28;20030;-85
2021/08/01 06:17:35;;;;;;;30.80;25.45;;;15.90;99.90;;;;;;5049319;28;20381;-86
2021/08/01 06:20:01;;;;;;;37.38;27.80;;;15.90;99.90;;;;;;5049126;28;20025;-85
2021/08/01 06:22:26;;;;;;;34.65;25.77;;;15.90;99.90;;;;;;5049147;28;20381;-85
2021/08/01 06:24:52;;;;;;;36.22;26.27;;;15.90;99.90;;;;;;5033965;28;20064;-85
2021/08/01 06:27:18;;;;;;;33.78;24.27;;;15.90;99.90;;;;;;5048840;28;20056;-85
2021/08/01 06:29:44;;;;;;;36.75;26.88;;;16.00;99.90;;;;;;5048925;28;20124;-86
2021/08/01 06:32:10;;;;;;;32.85;26.52;;;16.00;99.90;;;;;;5048389;28;20033;-86
2021/08/01 06:34:36;;;;;;;40.88;27.98;;;16.00;99.90;;;;;;5032519;28;20036;-87
2021/08/01 06:37:02;;;;;;;35.38;26.42;;;16.00;99.90;;;;;;5049139;28;20076;-86
2021/08/01 06:39:31;;;;;;;34.38;26.23;;;16.00;99.90;;;;;;5048819;28;20056;-87
2021/08/01 06:41:57;;;;;;;35.47;26.75;;;16.00;99.90;;;;;;5046278;28;20477;-87
2021/08/01 06:44:23;;;;;;;35.95;25.15;;;16.00;99.90;;;;;;5046817;28;20512;-85
2021/08/01 06:46:48;;;;;;;30.85;22.10;;;16.00;99.90;;;;;;5046640;28;20128;-86
2021/08/01 06:49:14;;;;;;;33.72;23.30;;;15.90;99.90;;;;;;5046877;28;20021;-86
2021/08/01 06:51:40;;;;;;;37.95;25.40;;;16.00;99.90;;;;;;5046863;28;20055;-87
2021/08/01 06:54:05;;;;;;;32.88;23.20;;;16.00;99.90;;;;;;5046573;28;20532;-86
2021/08/01 06:56:31;;;;;;;30.80;21.60;;;16.00;99.90;;;;;;5046849;28;20071;-86
2021/08/01 06:58:57;;;;;;;33.85;22.25;;;16.00;99.90;;;;;;5046440;28;20389;-86
2021/08/01 07:01:22;;;;;;;32.22;21.90;;;16.10;99.90;;;;;;5046574;28;20033;-87
2021/08/01 07:03:48;;;;;;;33.75;23.13;;;16.10;99.90;;;;;;5046267;28;20053;-87
2021/08/01 07:06:13;;;;;;;38.08;24.08;;;16.10;99.90;;;;;;5046369;28;20030;-86
2021/08/01 07:08:39;;;;;;;40.20;26.10;;;16.10;99.90;;;;;;5036696;28;20128;-86
2021/08/01 07:11:05;;;;;;;39.85;24.38;;;16.10;99.90;;;;;;5020354;28;20104;-86
2021/08/01 07:13:30;;;;;;;36.50;25.75;;;16.00;99.90;;;;;;5045799;28;20041;-85
2021/08/01 07:16:05;;;;;;;32.05;21.23;;;16.00;99.90;;;;;;5012771;28;20113;-87
2021/08/01 07:18:32;;;;;;;43.72;28.88;;;16.00;99.90;;;;;;5045585;28;20044;-87
2021/08/01 07:20:58;;;;;;;42.20;27.38;;;15.90;99.90;;;;;;5045697;28;20092;-88
2021/08/01 07:23:28;;;;;;;40.78;26.42;;;15.80;99.90;;;;;;5046727;28;20112;-87
2021/08/01 07:25:56;;;;;;;38.83;25.25;;;15.80;99.90;;;;;;5031049;28;20030;-87
2021/08/01 07:28:22;;;;;;;44.22;26.95;;;15.80;99.90;;;;;;5046078;28;20053;-86
2021/08/01 07:30:52;;;;;;;45.70;28.70;;;15.90;99.90;;;;;;5046296;28;20034;-85
2021/08/01 07:33:20;;;;;;;52.05;31.42;;;15.90;99.90;;;;;;5030933;28;20041;-87
2021/08/01 07:35:49;;;;;;;49.55;28.77;;;15.90;99.90;;;;;;5046271;28;20041;-86
2021/08/01 07:38:17;;;;;;;40.95;26.70;;;15.90;99.90;;;;;;5046352;28;20034;-87
2021/08/01 07:40:48;;;;;;;42.15;27.13;;;15.90;99.90;;;;;;5045940;28;20481;-87
2021/08/01 07:43:17;;;;;;;50.15;31.70;;;15.90;99.90;;;;;;5032448;28;20482;-86
2021/08/01 07:45:45;;;;;;;47.28;28.85;;;15.90;99.90;;;;;;5034084;28;20068;-87
2021/08/01 07:48:24;;;;;;;49.15;30.17;;;15.90;99.90;;;;;;5034369;28;20076;-88
2021/08/01 07:50:52;;;;;;;46.75;27.55;;;15.90;99.90;;;;;;5049965;28;20508;-86
2021/08/01 07:53:24;;;;;;;46.20;27.88;;;15.90;99.90;;;;;;5034217;28;20037;-87
2021/08/01 07:55:50;;;;;;;51.17;30.50;;;15.90;99.90;;;;;;5047279;28;20033;-87
2021/08/01 07:58:17;;;;;;;44.13;26.77;;;15.90;99.90;;;;;;5032554;28;20029;-87
2021/08/01 08:00:45;;;;;;;44.03;28.17;;;16.00;99.90;;;;;;5032907;28;20038;-86
2021/08/01 08:03:16;;;;;;;45.03;27.73;;;16.10;99.90;;;;;;5049422;28;20412;-87
2021/08/01 08:05:45;;;;;;;45.42;28.75;;;16.10;99.90;;;;;;5032996;28;20026;-86
2021/08/01 08:08:16;;;;;;;50.80;30.13;;;16.10;99.90;;;;;;5049700;28;20034;-87
2021/08/01 08:10:45;;;;;;;43.72;27.92;;;16.20;99.90;;;;;;5049063;28;20128;-86
2021/08/01 08:13:12;;;;;;;53.25;30.58;;;16.20;99.90;;;;;;5032929;28;20041;-87
2021/08/01 08:15:38;;;;;;;55.50;31.90;;;16.30;99.90;;;;;;5049551;28;20037;-86
2021/08/01 08:18:04;;;;;;;51.10;30.80;;;16.30;99.90;;;;;;5049539;28;20207;-86
2021/08/01 08:20:31;;;;;;;47.10;28.42;;;16.30;99.90;;;;;;5049395;28;20053;-86
2021/08/01 08:23:02;;;;;;;50.10;28.70;;;16.40;99.90;;;;;;5049014;28;20041;-88
2021/08/01 08:25:27;;;;;;;50.47;30.00;;;16.40;99.90;;;;;;5049415;28;20021;-83
2021/08/01 08:27:59;;;;;;;45.90;26.02;;;16.40;99.90;;;;;;5048205;28;20049;-85
2021/08/01 08:30:28;;;;;;;44.30;28.35;;;16.60;99.90;;;;;;5053087;28;20037;-84
2021/08/01 08:32:54;;;;;;;51.53;31.10;;;16.60;99.90;;;;;;5036274;28;20083;-84
2021/08/01 08:35:20;;;;;;;45.90;29.98;;;16.60;99.90;;;;;;5051708;28;20071;-85
2021/08/01 08:37:48;;;;;;;45.45;28.58;;;16.60;99.90;;;;;;5036634;28;20037;-86
2021/08/01 08:40:14;;;;;;;54.60;32.50;;;16.70;99.90;;;;;;5033733;28;20029;-86
2021/08/01 08:42:45;;;;;;;52.35;32.10;;;16.70;99.90;;;;;;5034636;28;20040;-85
2021/08/01 08:45:14;;;;;;;50.25;29.85;;;16.70;99.90;;;;;;5052187;28;20040;-85
2021/08/01 08:47:41;;;;;;;46.08;28.52;;;16.70;99.90;;;;;;5052839;28;20032;-86
2021/08/01 08:50:07;;;;;;;46.72;29.83;;;16.70;99.90;;;;;;5035373;28;20025;-85
2021/08/01 08:52:35;;;;;;;55.90;33.03;;;16.80;99.90;;;;;;5035633;28;20045;-85
2021/08/01 08:55:03;;;;;;;51.58;31.15;;;16.80;99.90;;;;;;5034752;28;20385;-86
2021/08/01 08:57:33;;;;;;;52.90;31.98;;;16.80;99.90;;;;;;5035222;28;20420;-85
2021/08/01 09:00:04;;;;;;;53.00;31.77;;;16.90;99.90;;;;;;5051963;28;20037;-85
2021/08/01 09:02:30;;;;;;;42.55;27.80;;;16.90;99.90;;;;;;5051584;28;20029;-85
2021/08/01 09:04:59;;;;;;;53.35;31.38;;;17.00;99.90;;;;;;5051684;28;20132;-85
2021/08/01 09:07:25;;;;;;;47.88;27.65;;;17.10;99.90;;;;;;5050810;28;20047;-85
2021/08/01 09:09:51;;;;;;;45.22;28.05;;;17.10;99.90;;;;;;5034384;28;20124;-85
2021/08/01 09:12:18;;;;;;;46.70;28.30;;;17.20;99.90;;;;;;5050412;28;20033;-86
2021/08/01 09:14:45;;;;;;;43.65;27.17;;;17.30;99.90;;;;;;5033896;28;20033;-85
2021/08/01 09:17:12;;;;;;;44.83;27.52;;;17.40;99.90;;;;;;5034150;28;20579;-85
2021/08/01 09:19:43;;;;;;;51.72;29.38;;;17.40;99.90;;;;;;5033832;28;20033;-85
2021/08/01 09:22:24;;;;;;;48.60;27.90;;;17.50;99.90;;;;;;5049019;28;20123;-84
2021/08/01 09:24:51;;;;;;;42.65;26.38;;;17.50;99.90;;;;;;5034015;28;20041;-84
2021/08/01 09:27:29;;;;;;;43.72;26.58;;;17.60;99.90;;;;;;5031233;28;20504;-87
2021/08/01 09:29:55;;;;;;;41.38;26.00;;;17.60;99.90;;;;;;5031407;28;20040;-85
2021/08/01 09:32:22;;;;;;;42.15;27.67;;;17.60;99.90;;;;;;5047312;28;20045;-86
2021/08/01 09:34:49;;;;;;;39.40;24.45;;;17.70;99.90;;;;;;5047949;28;20121;-86
2021/08/01 09:37:30;;;;;;;46.28;28.88;;;17.80;99.90;;;;;;5047968;28;20044;-85
2021/08/01 09:40:09;;;;;;;47.63;30.73;;;18.00;99.90;;;;;;5047457;28;20068;-86
2021/08/01 09:42:42;;;;;;;48.22;29.48;;;18.00;99.90;;;;;;5031264;28;20069;-84
2021/08/01 09:45:11;;;;;;;;;;;18.10;99.90;;;;;;5059293;28;20038;-87
2021/08/01 09:47:37;;;;;;;40.13;26.48;;;18.20;99.90;;;;;;5047132;28;19905;-87
2021/08/01 09:50:07;;;;;;;43.47;26.67;;;18.50;99.90;;;;;;5047156;28;20040;-86
2021/08/01 09:52:33;;;;;;;44.53;28.95;;;19.00;99.90;;;;;;5047298;28;20128;-87
2021/08/01 09:54:59;;;;;;;42.33;28.83;;;19.20;99.90;;;;;;5046961;28;20025;-86
2021/08/01 09:57:25;;;;;;;45.75;30.40;;;19.40;99.90;;;;;;5030546;28;20387;-84
2021/08/01 10:00:06;;;;;;;46.17;29.15;;;19.80;99.90;;;;;;5032365;28;20095;-84
2021/08/01 10:02:37;;;;;;;38.15;27.90;;;20.70;99.90;;;;;;5047206;28;20084;-85
2021/08/01 10:05:14;;;;;;;41.22;27.38;;;21.50;99.90;;;;;;5048250;28;20491;-85
2021/08/01 10:07:44;;;;;;;38.22;26.17;;;22.50;99.90;;;;;;5045398;28;20446;-86
2021/08/01 10:10:25;;;;;;;30.75;23.25;;;22.90;99.90;;;;;;5028842;28;20041;-84
2021/08/01 10:12:57;;;;;;;33.03;25.00;;;22.60;99.90;;;;;;5045797;28;20033;-85
2021/08/01 10:15:25;;;;;;;31.02;22.05;;;22.20;99.90;;;;;;5047132;28;20025;-84
2021/08/01 10:17:51;;;;;;;31.13;23.13;;;22.20;99.90;;;;;;5047124;28;20029;-84
2021/08/01 10:20:17;;;;;;;27.60;20.52;;;22.80;99.90;;;;;;5034676;28;20116;-86
2021/08/01 10:22:44;;;;;;;31.55;20.92;;;22.90;99.90;;;;;;5030434;28;20021;-85
2021/08/01 10:25:20;;;;;;;29.52;21.27;;;22.70;99.90;;;;;;5047044;28;20036;-84
2021/08/01 10:27:53;;;;;;;29.70;21.20;;;22.40;99.90;;;;;;5046490;28;20049;-85
2021/08/01 10:30:21;;;;;;;28.35;20.05;;;22.20;99.90;;;;;;5047072;28;20040;-85
2021/08/01 10:32:52;;;;;;;24.42;18.98;;;22.20;99.90;;;;;;5046069;28;20447;-84
2021/08/01 10:35:24;;;;;;;26.90;21.10;;;22.30;99.90;;;;;;5047004;28;20392;-86
2021/08/01 10:37:58;;;;;;;24.92;17.38;;;22.50;99.90;;;;;;5026439;28;20041;-85
2021/08/01 10:40:26;;;;;;;24.85;18.95;;;22.50;99.90;;;;;;5029184;28;20042;-86
2021/08/01 10:42:56;;;;;;;24.98;18.77;;;22.10;99.90;;;;;;5027626;28;20029;-85
2021/08/01 10:45:22;;;;;;;22.25;16.08;;;21.60;99.90;;;;;;5029389;28;20121;-85
2021/08/01 10:47:52;;;;;;;23.17;17.98;;;21.00;99.90;;;;;;5040359;28;20180;-84
2021/08/01 10:50:24;;;;;;;20.42;16.42;;;20.40;99.90;;;;;;5029017;28;20045;-85
2021/08/01 10:53:19;;;;;;;25.55;19.85;;;19.70;99.90;;;;;;5046917;28;20029;-86
2021/08/01 10:55:46;;;;;;;24.80;18.50;;;19.20;99.90;;;;;;5045819;28;20103;-87
2021/08/01 10:58:13;;;;;;;29.10;21.08;;;18.80;99.90;;;;;;5029707;28;20048;-87
2021/08/01 11:00:58;;;;;;;28.48;19.63;;;18.60;99.90;;;;;;5045949;28;20772;-88
2021/08/01 11:03:24;;;;;;;25.50;17.20;;;18.40;99.90;;;;;;5030288;28;20101;-85
2021/08/01 11:05:50;;;;;;;23.35;16.48;;;18.10;99.90;;;;;;5029839;28;20025;-86
2021/08/01 11:08:17;;;;;;;21.20;16.92;;;18.10;99.90;;;;;;5044275;28;20056;-86
2021/08/01 11:10:44;;;;;;;24.75;16.15;;;18.00;99.90;;;;;;5031304;28;20660;-85
2021/08/01 11:13:31;;;;;;;23.52;17.38;;;17.90;99.90;;;;;;5046325;28;20047;-86
2021/08/01 11:15:57;;;;;;;23.77;15.82;;;17.70;99.90;;;;;;5032054;28;20041;-86
2021/08/01 11:18:33;;;;;;;26.00;19.25;;;17.80;99.90;;;;;;5033608;28;20501;-86
2021/08/01 11:21:03;;;;;;;22.08;15.52;;;17.90;99.90;;;;;;5049956;28;20489;-87
2021/08/01 11:23:44;;;;;;;19.35;13.93;;;17.80;99.90;;;;;;5034954;28;20060;-85
2021/08/01 11:26:15;;;;;;;19.17;12.85;;;18.10;99.90;;;;;;5032591;28;20064;-86
2021/08/01 11:28:43;;;;;;;16.85;12.68;;;18.10;99.90;;;;;;5049706;28;20382;-85
2021/08/01 11:31:19;;;;;;;15.45;11.13;;;18.20;99.90;;;;;;5049615;28;20041;-86
2021/08/01 11:33:50;;;;;;;10.57;8.57;;;18.40;99.90;;;;;;5035040;28;20041;-86
2021/08/01 11:36:27;;;;;;;9.98;7.03;;;18.70;99.90;;;;;;5048187;28;20171;-86
2021/08/01 11:38:53;;;;;;;7.97;5.95;;;19.00;99.90;;;;;;5017092;28;20030;-85
2021/08/01 11:44:14;;;;;;;7.43;5.82;;;19.80;99.90;;;;;;5033778;28;20048;-87
2021/08/01 11:46:55;;;;;;;6.75;5.07;;;19.90;99.90;;;;;;5034201;28;20378;-87
2021/08/01 11:49:51;;;;;;;7.10;5.28;;;20.10;99.90;;;;;;5048858;28;20029;-87
2021/08/01 11:52:45;;;;;;;5.78;4.45;;;20.00;99.90;;;;;;5029466;28;20040;-87
2021/08/01 11:55:11;;;;;;;;;;;20.10;99.90;;;;;;5043542;28;20485;-86
2021/08/01 11:57:38;;;;;;;8.43;5.85;;;20.10;99.90;;;;;;5044308;28;20391;-88
2021/08/01 12:00:05;;;;;;;10.63;7.47;;;20.10;99.90;;;;;;5032343;28;20029;-87
2021/08/01 12:02:31;;;;;;;13.63;9.48;;;20.10;99.90;;;;;;5043896;28;20042;-87
2021/08/01 12:04:59;;;;;;;18.70;11.80;;;20.00;99.90;;;;;;5042439;28;20042;-87
2021/08/01 12:07:47;;;;;;;15.48;10.93;;;19.80;99.90;;;;;;5036431;28;20042;-87
2021/08/01 12:10:25;;;;;;;16.73;11.70;;;19.60;99.90;;;;;;5042179;28;20033;-87
2021/08/01 12:12:56;;;;;;;19.23;14.05;;;19.60;99.90;;;;;;5028296;28;20095;-88
2021/08/01 12:15:26;;;;;;;20.92;13.73;;;19.50;99.90;;;;;;5033499;28;20041;-86
2021/08/01 12:17:52;;;;;;;17.00;12.05;;;19.90;99.90;;;;;;5033200;28;20033;-86
2021/08/01 12:20:18;;;;;;;13.25;9.82;;;20.20;99.90;;;;;;5047169;28;20039;-86
2021/08/01 12:22:48;;;;;;;10.98;8.77;;;20.30;99.90;;;;;;5029618;28;20072;-86
2021/08/01 12:25:14;;;;;;;11.05;7.57;;;20.20;99.90;;;;;;5028804;28;20049;-85
2021/08/01 12:27:41;;;;;;;9.30;7.35;;;20.10;99.90;;;;;;5048000;28;20076;-85
2021/08/01 12:30:17;;;;;;;10.05;7.03;;;20.00;99.90;;;;;;5041630;28;20040;-85
2021/08/01 12:32:45;;;;;;;7.97;6.07;;;19.90;99.90;;;;;;5042707;28;20087;-86
2021/08/01 12:35:12;;;;;;;7.53;5.43;;;19.80;99.90;;;;;;5047748;28;20104;-86
2021/08/01 12:38:02;;;;;;;7.00;4.95;;;19.90;99.90;;;;;;5048644;28;20539;-85
2021/08/01 12:40:45;;;;;;;6.07;4.60;;;19.90;99.90;;;;;;5047876;28;20042;-85
2021/08/01 12:43:17;;;;;;;6.20;4.55;;;20.00;99.90;;;;;;5042670;28;20060;-85
2021/08/01 12:45:45;;;;;;;6.80;5.03;;;19.80;99.90;;;;;;5045752;28;20117;-85
2021/08/01 12:48:21;;;;;;;5.20;3.95;;;19.80;99.90;;;;;;5044558;28;20069;-85
2021/08/01 12:50:55;;;;;;;5.20;3.95;;;19.70;99.90;;;;;;5019074;28;20043;-86
2021/08/01 12:53:25;;;;;;;4.10;3.65;;;19.70;99.90;;;;;;5038158;28;20485;-86